createdAt,value
2018-02-14T00:01:06.041Z,979.87
2018-02-14T00:02:16.028Z,979.88
2018-02-14T00:03:26.019Z,979.89
2018-02-14T00:04:35.471Z,979.89
2018-02-14T00:05:44.665Z,979.95
2018-02-14T00:06:53.850Z,979.96
2018-02-14T00:08:02.770Z,979.95
2018-02-14T00:09:11.957Z,980.02
2018-02-14T00:10:21.682Z,979.96
2018-02-14T00:11:31.133Z,979.95
2018-02-14T00:12:41.261Z,980
2018-02-14T00:13:51.239Z,980.04
2018-02-14T00:15:00.686Z,980.05
2018-02-14T00:16:10.412Z,980.08
2018-02-14T00:17:20.129Z,980
2018-02-14T00:18:30.109Z,980.01
2018-02-14T00:19:40.095Z,980.01
2018-02-14T00:20:50.077Z,980.01
2018-02-14T00:21:59.258Z,980.07
2018-02-14T00:23:08.979Z,980.01
2018-02-14T00:24:18.966Z,980.04
2018-02-14T00:25:28.948Z,980.05
2018-02-14T00:26:38.931Z,979.99
2018-02-14T00:27:48.917Z,980
2018-02-14T00:28:58.929Z,980.02
2018-02-14T00:30:08.379Z,980.02
2018-02-14T00:31:18.399Z,980.06
2018-02-14T00:32:27.583Z,980.04
2018-02-14T00:33:37.576Z,980.03
2018-02-14T00:34:47.581Z,980.04
2018-02-14T00:35:56.870Z,980.02
2018-02-14T00:37:05.792Z,980.03
2018-02-14T00:38:14.713Z,980.05
2018-02-14T00:39:24.174Z,980.02
2018-02-14T00:40:33.094Z,980.03
2018-02-14T00:41:42.540Z,980.02
2018-02-14T00:42:51.991Z,980.01
2018-02-14T00:44:01.448Z,980.06
2018-02-14T00:45:10.368Z,980.12
2018-02-14T00:46:19.815Z,980.09
2018-02-14T00:47:28.734Z,980.11
2018-02-14T00:48:38.195Z,980.15
2018-02-14T00:49:47.114Z,980.13
2018-02-14T00:50:56.031Z,980.16
2018-02-14T00:52:04.944Z,980.07
2018-02-14T00:53:13.861Z,980.08
2018-02-14T00:54:23.312Z,980.09
2018-02-14T00:55:32.232Z,980.07
2018-02-14T00:56:41.950Z,980.06
2018-02-14T00:57:51.404Z,980.02
2018-02-14T00:59:00.686Z,980.07
2018-02-14T01:00:10.666Z,980.03
2018-02-14T01:01:20.381Z,980
2018-02-14T01:02:29.831Z,980.07
2018-02-14T01:03:39.817Z,980.1
2018-02-14T01:04:49.537Z,980.1
2018-02-14T01:05:59.522Z,980.12
2018-02-14T01:07:09.245Z,980.08
2018-02-14T01:08:18.957Z,980.15
2018-02-14T01:09:28.140Z,980.14
2018-02-14T01:10:37.642Z,980.15
2018-02-14T01:11:47.358Z,980.15
2018-02-14T01:12:57.386Z,980.13
2018-02-14T01:14:06.044Z,980.17
2018-02-14T01:15:16.023Z,980.2
2018-02-14T01:16:26.006Z,980.18
2018-02-14T01:17:35.984Z,980.17
2018-02-14T01:18:45.970Z,980.17
2018-02-14T01:19:55.953Z,980.17
2018-02-14T01:21:05.369Z,980.15
2018-02-14T01:22:14.816Z,980.16
2018-02-14T01:23:24.798Z,980.14
2018-02-14T01:24:34.784Z,980.16
2018-02-14T01:25:44.502Z,980.16
2018-02-14T01:26:54.246Z,980.17
2018-02-14T01:28:03.483Z,980.17
2018-02-14T01:29:13.202Z,980.22
2018-02-14T01:30:23.188Z,980.21
2018-02-14T01:31:32.640Z,980.26
2018-02-14T01:32:42.355Z,980.25
2018-02-14T01:33:52.337Z,980.24
2018-02-14T01:35:02.052Z,980.24
2018-02-14T01:36:11.767Z,980.22
2018-02-14T01:37:21.491Z,980.26
2018-02-14T01:38:31.471Z,980.28
2018-02-14T01:39:40.915Z,980.26
2018-02-14T01:40:50.895Z,980.21
2018-02-14T01:42:00.873Z,980.23
2018-02-14T01:43:10.597Z,980.21
2018-02-14T01:44:20.593Z,980.19
2018-02-14T01:45:30.141Z,980.2
2018-02-14T01:46:40.132Z,980.21
2018-02-14T01:47:49.581Z,980.24
2018-02-14T01:48:59.297Z,980.16
2018-02-14T01:50:09.016Z,980.17
2018-02-14T01:51:18.740Z,980.19
2018-02-14T01:52:28.733Z,980.18
2018-02-14T01:53:38.179Z,980.24
2018-02-14T01:54:47.628Z,980.26
2018-02-14T01:55:57.607Z,980.24
2018-02-14T01:57:07.070Z,980.25
2018-02-14T01:58:16.523Z,980.26
2018-02-14T01:59:26.510Z,980.26
2018-02-14T02:00:36.225Z,980.24
2018-02-14T02:01:46.204Z,980.28
2018-02-14T02:02:56.187Z,980.26
2018-02-14T02:04:06.165Z,980.3
2018-02-14T02:05:16.145Z,980.29
2018-02-14T02:06:25.861Z,980.35
2018-02-14T02:07:35.579Z,980.29
2018-02-14T02:08:45.315Z,980.33
2018-02-14T02:09:55.317Z,980.37
2018-02-14T02:11:05.383Z,980.33
2018-02-14T02:12:15.369Z,980.37
2018-02-14T02:13:24.822Z,980.35
2018-02-14T02:14:34.604Z,980.41
2018-02-14T02:15:44.331Z,980.37
2018-02-14T02:16:54.314Z,980.4
2018-02-14T02:18:04.297Z,980.41
2018-02-14T02:19:13.770Z,980.39
2018-02-14T02:20:23.489Z,980.45
2018-02-14T02:21:33.211Z,980.43
2018-02-14T02:22:42.923Z,980.46
2018-02-14T02:23:52.905Z,980.43
2018-02-14T02:25:02.628Z,980.39
2018-02-14T02:26:12.712Z,980.37
2018-02-14T02:27:22.424Z,980.37
2018-02-14T02:28:31.877Z,980.36
2018-02-14T02:29:41.853Z,980.34
2018-02-14T02:30:51.310Z,980.37
2018-02-14T02:32:01.296Z,980.34
2018-02-14T02:33:11.021Z,980.34
2018-02-14T02:34:20.747Z,980.39
2018-02-14T02:35:30.763Z,980.35
2018-02-14T02:36:40.495Z,980.36
2018-02-14T02:37:50.220Z,980.32
2018-02-14T02:38:59.680Z,980.34
2018-02-14T02:40:09.673Z,980.35
2018-02-14T02:41:19.656Z,980.39
2018-02-14T02:42:29.106Z,980.37
2018-02-14T02:43:39.133Z,980.38
2018-02-14T02:44:48.864Z,980.4
2018-02-14T02:45:58.583Z,980.42
2018-02-14T02:47:08.577Z,980.47
2018-02-14T02:48:17.762Z,980.47
2018-02-14T02:49:27.753Z,980.55
2018-02-14T02:50:37.477Z,980.47
2018-02-14T02:51:47.196Z,980.48
2018-02-14T02:52:57.186Z,980.44
2018-02-14T02:54:06.905Z,980.41
2018-02-14T02:55:16.937Z,980.44
2018-02-14T02:56:26.658Z,980.4
2018-02-14T02:57:36.110Z,980.4
2018-02-14T02:58:46.097Z,980.38
2018-02-14T02:59:55.557Z,980.39
2018-02-14T03:01:05.016Z,980.38
2018-02-14T03:02:14.482Z,980.28
2018-02-14T03:03:24.478Z,980.26
2018-02-14T03:04:34.455Z,980.31
2018-02-14T03:05:44.432Z,980.26
2018-02-14T03:06:54.530Z,980.3
2018-02-14T03:08:04.517Z,980.23
2018-02-14T03:09:13.972Z,980.26
2018-02-14T03:10:23.954Z,980.24
2018-02-14T03:11:33.940Z,980.25
2018-02-14T03:12:43.928Z,980.23
2018-02-14T03:13:53.912Z,980.19
2018-02-14T03:15:03.897Z,980.16
2018-02-14T03:16:13.877Z,980.18
2018-02-14T03:17:23.592Z,980.14
2018-02-14T03:18:33.575Z,980.2
2018-02-14T03:19:43.558Z,980.21
2018-02-14T03:20:53.014Z,980.17
2018-02-14T03:22:02.999Z,980.18
2018-02-14T03:23:12.986Z,980.17
2018-02-14T03:24:22.968Z,980.2
2018-02-14T03:25:32.952Z,980.19
2018-02-14T03:26:42.664Z,980.25
2018-02-14T03:27:52.648Z,980.29
2018-02-14T03:29:02.626Z,980.26
2018-02-14T03:30:12.080Z,980.27
2018-02-14T03:31:21.813Z,980.32
2018-02-14T03:32:31.541Z,980.28
2018-02-14T03:33:41.260Z,980.39
2018-02-14T03:34:50.712Z,980.31
2018-02-14T03:36:00.521Z,980.29
2018-02-14T03:37:10.240Z,980.35
2018-02-14T03:38:20.219Z,980.37
2018-02-14T03:39:29.668Z,980.32
2018-02-14T03:40:39.381Z,980.32
2018-02-14T03:41:48.836Z,980.34
2018-02-14T03:42:58.815Z,980.25
2018-02-14T03:44:08.575Z,980.19
2018-02-14T03:45:18.556Z,980.15
2018-02-14T03:46:28.536Z,980.12
2018-02-14T03:47:38.253Z,980.11
2018-02-14T03:48:48.234Z,980.13
2018-02-14T03:49:57.953Z,980.13
2018-02-14T03:51:07.663Z,980.2
2018-02-14T03:52:17.649Z,980.23
2018-02-14T03:53:27.198Z,980.25
2018-02-14T03:54:37.186Z,980.22
2018-02-14T03:55:46.892Z,980.22
2018-02-14T03:56:56.868Z,980.26
2018-02-14T03:58:06.591Z,980.27
2018-02-14T03:59:16.578Z,980.31
2018-02-14T04:04:31.864Z,980.43
2018-02-14T04:05:41.845Z,980.42
2018-02-14T04:06:51.825Z,980.42
2018-02-14T04:08:01.545Z,980.42
2018-02-14T04:09:11.268Z,980.35
2018-02-14T04:10:20.767Z,980.3
2018-02-14T04:11:30.753Z,980.26
2018-02-14T04:12:40.737Z,980.31
2018-02-14T04:13:50.718Z,980.35
2018-02-14T04:15:00.717Z,980.43
2018-02-14T04:16:10.705Z,980.49
2018-02-14T04:17:20.420Z,980.59
2018-02-14T04:18:30.457Z,980.66
2018-02-14T04:19:40.440Z,980.64
2018-02-14T04:20:50.156Z,980.67
2018-02-14T04:22:00.143Z,980.76
2018-02-14T04:23:09.863Z,980.76
2018-02-14T04:24:19.326Z,980.79
2018-02-14T04:25:29.310Z,980.8
2018-02-14T04:26:39.029Z,980.74
2018-02-14T04:27:48.842Z,980.74
2018-02-14T04:28:58.296Z,980.78
2018-02-14T04:30:08.277Z,980.83
2018-02-14T04:31:17.994Z,980.87
2018-02-14T04:32:27.718Z,980.96
2018-02-14T04:33:37.698Z,980.92
2018-02-14T04:34:47.673Z,980.94
2018-02-14T04:35:57.651Z,980.85
2018-02-14T04:37:07.635Z,980.91
2018-02-14T04:38:17.622Z,980.96
2018-02-14T04:39:27.437Z,980.96
2018-02-14T04:40:36.890Z,980.92
2018-02-14T04:41:46.869Z,980.87
2018-02-14T04:42:56.589Z,980.89
2018-02-14T04:44:06.310Z,980.9
2018-02-14T04:45:15.501Z,980.96
2018-02-14T04:46:25.481Z,980.95
2018-02-14T04:47:35.197Z,980.93
2018-02-14T04:48:44.915Z,980.9
2018-02-14T04:49:54.920Z,980.87
2018-02-14T04:51:04.638Z,980.9
2018-02-14T04:52:14.356Z,980.96
2018-02-14T04:53:24.337Z,980.97
2018-02-14T04:54:33.786Z,980.9
2018-02-14T04:55:43.504Z,980.93
2018-02-14T04:56:53.219Z,980.85
2018-02-14T04:58:02.939Z,980.86
2018-02-14T04:59:12.390Z,980.84
2018-02-14T05:00:22.370Z,980.79
2018-02-14T05:01:32.352Z,980.77
2018-02-14T05:02:42.334Z,980.79
2018-02-14T05:03:52.057Z,980.76
2018-02-14T05:05:01.511Z,980.78
2018-02-14T05:06:11.487Z,980.78
2018-02-14T05:07:20.940Z,980.81
2018-02-14T05:08:30.928Z,980.89
2018-02-14T05:09:40.919Z,980.88
2018-02-14T05:10:50.412Z,980.91
2018-02-14T05:12:00.178Z,980.95
2018-02-14T05:13:09.630Z,980.96
2018-02-14T05:14:19.615Z,980.91
2018-02-14T05:15:29.360Z,980.94
2018-02-14T05:16:39.082Z,980.95
2018-02-14T05:17:49.057Z,980.91
2018-02-14T05:18:59.047Z,980.93
2018-02-14T05:20:09.146Z,980.89
2018-02-14T05:21:18.932Z,980.85
2018-02-14T05:22:28.917Z,980.84
2018-02-14T05:23:38.904Z,980.8
2018-02-14T05:24:48.620Z,980.82
2018-02-14T05:25:58.347Z,980.85
2018-02-14T05:27:08.333Z,980.85
2018-02-14T05:28:18.319Z,980.9
2018-02-14T05:29:27.770Z,980.89
2018-02-14T05:30:37.755Z,980.93
2018-02-14T05:31:47.492Z,980.95
2018-02-14T05:32:57.476Z,980.96
2018-02-14T05:34:07.465Z,980.94
2018-02-14T05:35:17.184Z,980.94
2018-02-14T05:36:27.167Z,981.04
2018-02-14T05:37:36.965Z,981.04
2018-02-14T05:38:46.685Z,981.11
2018-02-14T05:39:56.402Z,981.06
2018-02-14T05:41:05.857Z,981.07
2018-02-14T05:42:15.578Z,981.03
2018-02-14T05:43:25.562Z,981.01
2018-02-14T05:44:35.546Z,981.02
2018-02-14T05:45:45.002Z,981.09
2018-02-14T05:46:54.992Z,981.07
2018-02-14T05:48:04.454Z,981.12
2018-02-14T05:49:14.236Z,981.08
2018-02-14T05:50:23.951Z,981.07
2018-02-14T05:51:33.673Z,981.07
2018-02-14T05:52:43.129Z,981.05
2018-02-14T05:53:52.847Z,981.03
2018-02-14T05:55:02.306Z,981.04
2018-02-14T05:56:12.021Z,981.15
2018-02-14T05:57:21.469Z,981.18
2018-02-14T05:58:31.222Z,981.21
2018-02-14T05:59:40.943Z,981.22
2018-02-14T06:00:50.714Z,981.3
2018-02-14T06:02:00.696Z,981.33
2018-02-14T06:03:10.424Z,981.33
2018-02-14T06:04:20.141Z,981.37
2018-02-14T06:05:29.864Z,981.41
2018-02-14T06:06:39.315Z,981.36
2018-02-14T06:07:49.300Z,981.37
2018-02-14T06:08:59.284Z,981.42
2018-02-14T06:10:09.271Z,981.41
2018-02-14T06:11:19.259Z,981.43
2018-02-14T06:12:29.339Z,981.44
2018-02-14T06:13:39.336Z,981.49
2018-02-14T06:14:49.057Z,981.44
2018-02-14T06:15:59.059Z,981.49
2018-02-14T06:17:09.045Z,981.46
2018-02-14T06:18:19.034Z,981.44
2018-02-14T06:19:28.486Z,981.45
2018-02-14T06:20:37.944Z,981.43
2018-02-14T06:21:47.927Z,981.46
2018-02-14T06:22:57.715Z,981.48
2018-02-14T06:24:07.711Z,981.52
2018-02-14T06:25:17.698Z,981.53
2018-02-14T06:26:27.685Z,981.47
2018-02-14T06:27:37.706Z,981.55
2018-02-14T06:28:47.693Z,981.57
2018-02-14T06:29:57.148Z,981.61
2018-02-14T06:31:07.138Z,981.63
2018-02-14T06:32:16.858Z,981.6
2018-02-14T06:33:26.598Z,981.6
2018-02-14T06:34:36.586Z,981.63
2018-02-14T06:35:46.308Z,981.67
2018-02-14T06:36:55.762Z,981.75
2018-02-14T06:38:05.213Z,981.72
2018-02-14T06:39:15.197Z,981.72
2018-02-14T06:40:24.659Z,981.72
2018-02-14T06:41:34.429Z,981.71
2018-02-14T06:42:43.883Z,981.68
2018-02-14T06:43:53.869Z,981.74
2018-02-14T06:45:03.587Z,981.66
2018-02-14T06:46:13.572Z,981.68
2018-02-14T06:47:23.564Z,981.69
2018-02-14T06:48:33.550Z,981.69
2018-02-14T06:49:43.532Z,981.72
2018-02-14T06:50:52.724Z,981.78
2018-02-14T06:52:02.711Z,981.74
2018-02-14T06:53:12.209Z,981.77
2018-02-14T06:54:21.941Z,981.76
2018-02-14T06:55:31.401Z,981.78
2018-02-14T06:56:41.388Z,981.76
2018-02-14T06:57:50.839Z,981.76
2018-02-14T06:59:00.831Z,981.74
2018-02-14T07:00:10.553Z,981.82
2018-02-14T07:01:20.547Z,981.82
2018-02-14T07:02:30.528Z,981.83
2018-02-14T07:03:40.249Z,981.79
2018-02-14T07:04:50.339Z,981.81
2018-02-14T07:06:00.061Z,981.84
2018-02-14T07:07:09.252Z,981.85
2018-02-14T07:08:19.236Z,981.89
2018-02-14T07:09:28.968Z,981.87
2018-02-14T07:10:38.961Z,981.9
2018-02-14T07:11:48.987Z,981.88
2018-02-14T07:12:58.980Z,981.91
2018-02-14T07:14:08.702Z,981.91
2018-02-14T07:15:18.157Z,981.98
2018-02-14T07:16:28.140Z,981.94
2018-02-14T07:17:38.124Z,981.94
2018-02-14T07:18:48.114Z,981.96
2018-02-14T07:19:58.108Z,981.93
2018-02-14T07:21:07.297Z,981.95
2018-02-14T07:22:16.755Z,981.96
2018-02-14T07:23:26.738Z,981.9
2018-02-14T07:24:36.730Z,981.92
2018-02-14T07:25:46.455Z,981.95
2018-02-14T07:26:56.172Z,981.96
2018-02-14T07:28:06.263Z,981.94
2018-02-14T07:29:15.722Z,981.96
2018-02-14T07:30:25.466Z,981.99
2018-02-14T07:31:35.453Z,981.97
2018-02-14T07:32:45.445Z,981.99
2018-02-14T07:33:54.635Z,982
2018-02-14T07:35:04.362Z,982.09
2018-02-14T07:36:14.084Z,982.14
2018-02-14T07:37:23.535Z,982.15
2018-02-14T07:38:33.255Z,982.17
2018-02-14T07:39:43.540Z,982.17
2018-02-14T07:40:53.262Z,982.2
2018-02-14T07:42:03.254Z,982.22
2018-02-14T07:43:13.238Z,982.21
2018-02-14T07:44:22.695Z,982.22
2018-02-14T07:45:32.465Z,982.22
2018-02-14T07:46:42.185Z,982.24
2018-02-14T07:47:52.213Z,982.26
2018-02-14T07:49:02.198Z,982.27
2018-02-14T07:50:11.919Z,982.31
2018-02-14T07:51:21.903Z,982.29
2018-02-14T07:52:31.628Z,982.32
2018-02-14T07:53:41.080Z,982.35
2018-02-14T07:54:50.804Z,982.4
2018-02-14T07:56:00.795Z,982.43
2018-02-14T07:57:10.828Z,982.49
2018-02-14T07:58:20.280Z,982.48
2018-02-14T07:59:30.001Z,982.42
2018-02-14T08:00:39.728Z,982.39
2018-02-14T08:01:49.716Z,982.38
2018-02-14T08:02:59.434Z,982.37
2018-02-14T08:04:09.156Z,982.44
2018-02-14T08:05:18.881Z,982.39
2018-02-14T08:06:28.868Z,982.35
2018-02-14T08:07:38.859Z,982.31
2018-02-14T08:08:48.901Z,982.4
2018-02-14T08:09:58.621Z,982.42
2018-02-14T08:11:08.341Z,982.54
2018-02-14T08:12:18.338Z,982.51
2018-02-14T08:13:28.322Z,982.58
2018-02-14T08:14:38.067Z,982.5
2018-02-14T08:15:48.174Z,982.61
2018-02-14T08:16:58.173Z,982.62
2018-02-14T08:18:08.309Z,982.67
2018-02-14T08:19:18.033Z,982.7
2018-02-14T08:20:27.859Z,982.7
2018-02-14T08:21:37.314Z,982.67
2018-02-14T08:22:47.037Z,982.62
2018-02-14T08:23:56.539Z,982.65
2018-02-14T08:25:06.001Z,982.62
2018-02-14T08:26:15.459Z,982.6
2018-02-14T08:27:25.181Z,982.54
2018-02-14T08:28:34.901Z,982.52
2018-02-14T08:29:44.890Z,982.48
2018-02-14T08:30:54.616Z,982.44
2018-02-14T08:32:04.603Z,982.46
2018-02-14T08:33:14.333Z,982.45
2018-02-14T08:34:24.316Z,982.41
2018-02-14T08:35:33.570Z,982.38
2018-02-14T08:36:44.444Z,982.42
2018-02-14T08:37:55.024Z,982.33
2018-02-14T08:39:05.327Z,982.35
2018-02-14T08:40:15.566Z,982.36
2018-02-14T08:41:26.096Z,982.4
2018-02-14T08:42:36.374Z,982.43
2018-02-14T08:43:49.680Z,982.48
2018-02-14T08:44:59.944Z,982.48
2018-02-14T08:46:10.393Z,982.53
2018-02-14T08:47:20.380Z,982.59
2018-02-14T08:48:30.388Z,982.65
2018-02-14T08:49:40.147Z,982.67
2018-02-14T08:50:49.871Z,982.81
2018-02-14T08:51:59.588Z,982.79
2018-02-14T08:53:09.582Z,982.85
2018-02-14T08:54:19.306Z,982.88
2018-02-14T08:55:29.327Z,982.89
2018-02-14T08:56:39.315Z,982.92
2018-02-14T08:57:49.036Z,982.99
2018-02-14T08:58:58.756Z,982.93
2018-02-14T09:00:08.210Z,983
2018-02-14T09:01:17.934Z,983
2018-02-14T09:02:27.652Z,983.03
2018-02-14T09:03:37.638Z,983.03
2018-02-14T09:04:46.823Z,983.04
2018-02-14T09:05:56.016Z,983.03
2018-02-14T09:07:05.786Z,983.03
2018-02-14T09:08:15.775Z,983.02
2018-02-14T09:09:25.495Z,983.03
2018-02-14T09:10:35.223Z,983.03
2018-02-14T09:11:44.685Z,983.08
2018-02-14T09:12:54.667Z,983.06
2018-02-14T09:14:04.389Z,983.1
2018-02-14T09:15:14.111Z,983.06
2018-02-14T09:16:23.831Z,983.15
2018-02-14T09:17:33.817Z,983.1
2018-02-14T09:18:43.532Z,983.12
2018-02-14T09:19:53.253Z,983.13
2018-02-14T09:21:03.249Z,983.12
2018-02-14T09:22:12.702Z,983.15
2018-02-14T09:23:22.158Z,983.24
2018-02-14T09:24:31.876Z,983.21
2018-02-14T09:25:41.629Z,983.21
2018-02-14T09:26:51.617Z,983.17
2018-02-14T09:28:01.124Z,983.21
2018-02-14T09:29:10.845Z,983.24
2018-02-14T09:30:20.619Z,983.24
2018-02-14T09:31:30.074Z,983.24
2018-02-14T09:32:39.792Z,983.19
2018-02-14T09:33:49.511Z,983.24
2018-02-14T09:34:59.491Z,983.27
2018-02-14T09:36:09.219Z,983.24
2018-02-14T09:37:18.674Z,983.29
2018-02-14T09:38:28.550Z,983.29
2018-02-14T09:39:38.274Z,983.23
2018-02-14T09:40:47.993Z,983.25
2018-02-14T09:41:58.081Z,983.28
2018-02-14T09:43:07.541Z,983.3
2018-02-14T09:44:17.530Z,983.36
2018-02-14T09:45:27.517Z,983.35
2018-02-14T09:46:37.243Z,983.35
2018-02-14T09:47:47.261Z,983.33
2018-02-14T09:48:56.721Z,983.4
2018-02-14T09:50:06.445Z,983.4
2018-02-14T09:51:15.913Z,983.4
2018-02-14T09:52:25.634Z,983.46
2018-02-14T09:53:35.619Z,983.41
2018-02-14T09:54:45.606Z,983.44
2018-02-14T09:55:55.595Z,983.44
2018-02-14T09:57:05.588Z,983.47
2018-02-14T09:58:15.320Z,983.46
2018-02-14T09:59:25.042Z,983.51
2018-02-14T10:00:34.234Z,983.51
2018-02-14T10:01:44.223Z,983.54
2018-02-14T10:02:53.684Z,983.59
2018-02-14T10:04:03.678Z,983.57
2018-02-14T10:05:13.411Z,983.54
2018-02-14T10:06:23.134Z,983.55
2018-02-14T10:07:32.900Z,983.53
2018-02-14T10:08:42.635Z,983.52
2018-02-14T10:09:52.363Z,983.53
2018-02-14T10:11:02.357Z,983.56
2018-02-14T10:12:12.145Z,983.61
2018-02-14T10:13:21.872Z,983.61
2018-02-14T10:14:31.865Z,983.61
2018-02-14T10:15:41.592Z,983.59
2018-02-14T10:16:51.626Z,983.6
2018-02-14T10:18:01.640Z,983.65
2018-02-14T10:19:11.415Z,983.64
2018-02-14T10:20:21.028Z,983.65
2018-02-14T10:21:30.426Z,983.68
2018-02-14T10:22:40.599Z,983.68
2018-02-14T10:23:50.600Z,983.67
2018-02-14T10:25:00.594Z,983.69
2018-02-14T10:26:10.521Z,983.7
2018-02-14T10:27:21.023Z,983.69
2018-02-14T10:28:30.534Z,983.76
2018-02-14T10:29:40.524Z,983.75
2018-02-14T10:30:50.897Z,983.8
2018-02-14T10:32:00.885Z,983.81
2018-02-14T10:33:10.615Z,983.81
2018-02-14T10:34:20.370Z,983.85
2018-02-14T10:35:30.137Z,983.86
2018-02-14T10:36:39.882Z,983.84
2018-02-14T10:37:49.893Z,983.88
2018-02-14T10:38:59.352Z,983.89
2018-02-14T10:40:09.460Z,983.92
2018-02-14T10:41:19.508Z,983.89
2018-02-14T10:42:29.528Z,983.95
2018-02-14T10:43:39.265Z,983.92
2018-02-14T10:44:49.255Z,983.93
2018-02-14T10:45:58.715Z,983.92
2018-02-14T10:47:08.703Z,983.95
2018-02-14T10:48:18.698Z,983.91
2018-02-14T10:49:28.694Z,983.9
2018-02-14T10:50:38.427Z,983.97
2018-02-14T10:51:48.157Z,983.9
2018-02-14T10:52:58.149Z,983.94
2018-02-14T10:54:08.138Z,983.88
2018-02-14T10:55:18.132Z,983.89
2018-02-14T10:56:27.857Z,983.92
2018-02-14T10:57:37.964Z,983.94
2018-02-14T10:58:47.420Z,983.98
2018-02-14T10:59:56.887Z,983.95
2018-02-14T11:01:06.616Z,984.01
2018-02-14T11:02:16.688Z,984.02
2018-02-14T11:03:26.732Z,984.04
2018-02-14T11:04:36.727Z,984.02
2018-02-14T11:05:46.722Z,984
2018-02-14T11:06:56.188Z,984.05
2018-02-14T11:08:05.379Z,984.08
2018-02-14T11:09:15.374Z,984.08
2018-02-14T11:10:25.100Z,984.11
2018-02-14T11:11:34.824Z,984.06
2018-02-14T11:12:44.012Z,984.09
2018-02-14T11:13:53.775Z,984.04
2018-02-14T11:15:03.237Z,984.06
2018-02-14T11:16:12.429Z,984.11
2018-02-14T11:17:22.154Z,984.12
2018-02-14T11:18:31.881Z,984.14
2018-02-14T11:19:41.608Z,984.17
2018-02-14T11:20:51.651Z,984.18
2018-02-14T11:22:01.118Z,984.18
2018-02-14T11:23:10.844Z,984.14
2018-02-14T11:24:20.306Z,984.21
2018-02-14T11:25:29.499Z,984.23
2018-02-14T11:26:39.495Z,984.25
2018-02-14T11:27:49.216Z,984.22
2018-02-14T11:28:58.950Z,984.28
2018-02-14T11:30:08.410Z,984.18
2018-02-14T11:31:18.398Z,984.21
2018-02-14T11:32:28.122Z,984.23
2018-02-14T11:33:37.853Z,984.23
2018-02-14T11:34:47.842Z,984.27
2018-02-14T11:35:57.827Z,984.27
2018-02-14T11:37:07.815Z,984.25
2018-02-14T11:38:17.539Z,984.23
2018-02-14T11:39:27.527Z,984.29
2018-02-14T11:40:36.977Z,984.22
2018-02-14T11:41:46.701Z,984.27
2018-02-14T11:42:56.432Z,984.27
2018-02-14T11:44:06.167Z,984.33
2018-02-14T11:45:15.888Z,984.31
2018-02-14T11:46:25.347Z,984.34
2018-02-14T11:47:35.333Z,984.33
2018-02-14T11:48:45.059Z,984.34
2018-02-14T11:49:54.783Z,984.34
2018-02-14T11:51:04.768Z,984.37
2018-02-14T11:52:14.530Z,984.4
2018-02-14T11:53:24.314Z,984.38
2018-02-14T11:54:34.305Z,984.38
2018-02-14T11:55:44.030Z,984.37
2018-02-14T11:56:54.019Z,984.37
2018-02-14T11:58:04.008Z,984.31
2018-02-14T11:59:14.005Z,984.34
2018-02-14T12:00:24.009Z,984.31
2018-02-14T12:01:34.003Z,984.22
2018-02-14T12:02:43.729Z,984.24
2018-02-14T12:03:53.458Z,984.26
2018-02-14T12:05:03.183Z,984.28
2018-02-14T12:06:12.376Z,984.28
2018-02-14T12:07:22.075Z,984.23
2018-02-14T12:08:31.794Z,984.24
2018-02-14T12:09:41.785Z,984.26
2018-02-14T12:10:51.510Z,984.27
2018-02-14T12:12:00.972Z,984.22
2018-02-14T12:13:10.753Z,984.23
2018-02-14T12:14:20.749Z,984.26
2018-02-14T12:15:30.471Z,984.24
2018-02-14T12:16:40.455Z,984.29
2018-02-14T12:17:50.444Z,984.27
2018-02-14T12:19:00.170Z,984.23
2018-02-14T12:20:10.163Z,984.27
2018-02-14T12:21:20.172Z,984.28
2018-02-14T12:22:29.902Z,984.24
2018-02-14T12:23:39.889Z,984.36
2018-02-14T12:24:49.619Z,984.37
2018-02-14T12:25:59.080Z,984.36
2018-02-14T12:27:08.804Z,984.3
2018-02-14T12:28:18.789Z,984.31
2018-02-14T12:29:28.255Z,984.3
2018-02-14T12:30:38.277Z,984.3
2018-02-14T12:31:48.261Z,984.3
2018-02-14T12:32:58.252Z,984.31
2018-02-14T12:34:07.716Z,984.31
2018-02-14T12:35:17.175Z,984.35
2018-02-14T12:36:26.416Z,984.35
2018-02-14T12:37:36.137Z,984.35
2018-02-14T12:38:45.324Z,984.37
2018-02-14T12:39:55.309Z,984.31
2018-02-14T12:41:05.032Z,984.34
2018-02-14T12:42:14.765Z,984.36
2018-02-14T12:43:24.492Z,984.38
2018-02-14T12:44:34.222Z,984.37
2018-02-14T12:45:44.258Z,984.37
2018-02-14T12:46:53.985Z,984.37
2018-02-14T12:48:03.493Z,984.29
2018-02-14T12:49:13.478Z,984.31
2018-02-14T12:50:23.517Z,984.35
2018-02-14T12:51:33.507Z,984.36
2018-02-14T12:52:42.966Z,984.38
2018-02-14T12:53:52.956Z,984.41
2018-02-14T12:55:02.693Z,984.43
2018-02-14T12:56:11.937Z,984.44
2018-02-14T12:57:21.924Z,984.49
2018-02-14T12:58:31.652Z,984.52
2018-02-14T12:59:40.846Z,984.48
2018-02-14T13:00:50.836Z,984.52
2018-02-14T13:02:00.291Z,984.53
2018-02-14T13:03:09.752Z,984.59
2018-02-14T13:04:19.478Z,984.54
2018-02-14T13:05:29.198Z,984.58
2018-02-14T13:06:38.922Z,984.56
2018-02-14T13:07:48.378Z,984.58
2018-02-14T13:08:58.373Z,984.55
2018-02-14T13:10:08.103Z,984.59
2018-02-14T13:11:17.824Z,984.63
2018-02-14T13:12:27.281Z,984.6
2018-02-14T13:13:37.265Z,984.65
2018-02-14T13:14:47.252Z,984.69
2018-02-14T13:15:57.245Z,984.69
2018-02-14T13:17:07.235Z,984.74
2018-02-14T13:18:16.960Z,984.6
2018-02-14T13:19:26.685Z,984.64
2018-02-14T13:20:36.676Z,984.6
2018-02-14T13:21:46.704Z,984.64
2018-02-14T13:22:56.257Z,984.72
2018-02-14T13:24:05.985Z,984.68
2018-02-14T13:25:15.708Z,984.72
2018-02-14T13:26:25.699Z,984.7
2018-02-14T13:27:35.422Z,984.63
2018-02-14T13:28:45.420Z,984.65
2018-02-14T13:29:55.408Z,984.66
2018-02-14T13:31:05.141Z,984.72
2018-02-14T13:32:14.867Z,984.63
2018-02-14T13:33:24.858Z,984.61
2018-02-14T13:34:34.869Z,984.58
2018-02-14T13:35:44.854Z,984.59
2018-02-14T13:36:54.312Z,984.54
2018-02-14T13:38:04.145Z,984.53
2018-02-14T13:39:13.601Z,984.54
2018-02-14T13:40:23.701Z,984.5
2018-02-14T13:41:33.844Z,984.54
2018-02-14T13:42:43.825Z,984.52
2018-02-14T13:43:53.544Z,984.51
2018-02-14T13:45:03.264Z,984.4
2018-02-14T13:46:13.033Z,984.6
2018-02-14T13:47:22.761Z,984.55
2018-02-14T13:48:32.222Z,984.51
2018-02-14T13:49:41.950Z,984.52
2018-02-14T13:50:51.409Z,984.59
2018-02-14T13:52:01.132Z,984.65
2018-02-14T13:53:10.858Z,984.62
2018-02-14T13:54:20.316Z,984.66
2018-02-14T13:55:29.771Z,984.67
2018-02-14T13:56:39.759Z,984.71
2018-02-14T13:57:49.479Z,984.75
2018-02-14T13:58:59.202Z,984.73
2018-02-14T14:00:09.198Z,984.79
2018-02-14T14:01:19.269Z,984.7
2018-02-14T14:02:28.989Z,984.76
2018-02-14T14:03:38.445Z,984.73
2018-02-14T14:04:48.171Z,984.81
2018-02-14T14:05:57.095Z,984.86
2018-02-14T14:07:06.822Z,984.88
2018-02-14T14:08:16.811Z,984.83
2018-02-14T14:09:26.582Z,984.84
2018-02-14T14:10:36.303Z,984.83
2018-02-14T14:11:45.758Z,984.81
2018-02-14T14:12:55.481Z,984.87
2018-02-14T14:14:05.476Z,984.8
2018-02-14T14:15:15.197Z,984.9
2018-02-14T14:16:24.924Z,984.93
2018-02-14T14:17:34.380Z,984.96
2018-02-14T14:18:44.369Z,984.95
2018-02-14T14:19:54.094Z,984.97
2018-02-14T14:21:03.817Z,985.01
2018-02-14T14:22:13.809Z,984.95
2018-02-14T14:23:23.274Z,985.03
2018-02-14T14:24:32.731Z,984.92
2018-02-14T14:25:42.193Z,984.98
2018-02-14T14:26:51.915Z,984.94
2018-02-14T14:28:00.838Z,984.98
2018-02-14T14:29:10.560Z,984.97
2018-02-14T14:30:20.554Z,984.92
2018-02-14T14:31:30.011Z,984.91
2018-02-14T14:32:39.778Z,984.95
2018-02-14T14:33:49.240Z,985.01
2018-02-14T14:34:58.696Z,984.95
2018-02-14T14:36:08.424Z,984.92
2018-02-14T14:37:17.878Z,985.01
2018-02-14T14:38:27.704Z,985.03